sensor_id;sensor_type;location;lat;lon;timestamp;pressure;altitude;pressure_sealevel;temperature;humidity
43430;BME280;29028;43.234;27.896;2022-09-17T04:01:46;99005.84;;;23.61;76.73
43430;BME280;29028;43.234;27.896;2022-09-17T04:02:07;98995.25;;;23.55;76.65
43430;BME280;29028;43.234;27.896;2022-09-17T04:02:28;99008.28;;;23.63;76.85
43430;BME280;29028;43.234;27.896;2022-09-17T04:02:49;98998.41;;;23.62;76.62
43430;BME280;29028;43.234;27.896;2022-09-17T04:03:11;99005.09;;;23.56;76.64
43430;BME280;29028;43.234;27.896;2022-09-17T04:03:32;99001.16;;;23.62;76.79
43430;BME280;29028;43.234;27.896;2022-09-17T04:03:53;99001.03;;;23.53;76.69
43430;BME280;29028;43.234;27.896;2022-09-17T04:04:14;99000.19;;;23.53;76.53
43430;BME280;29028;43.234;27.896;2022-09-17T04:04:35;98990.75;;;23.45;76.81
43430;BME280;29028;43.234;27.896;2022-09-17T04:04:56;99008.06;;;23.59;76.82
43430;BME280;29028;43.234;27.896;2022-09-17T04:05:17;98999.72;;;23.64;76.67
43430;BME280;29028;43.234;27.896;2022-09-17T04:05:38;99005.53;;;23.63;76.62
43430;BME280;29028;43.234;27.896;2022-09-17T04:05:59;98993.69;;;23.49;76.77
43430;BME280;29028;43.234;27.896;2022-09-17T04:06:20;99000.31;;;23.48;76.98
43430;BME280;29028;43.234;27.896;2022-09-17T04:06:42;98998.00;;;23.55;76.94
43430;BME280;29028;43.234;27.896;2022-09-17T04:07:03;99001.31;;;23.52;76.84
43430;BME280;29028;43.234;27.896;2022-09-17T04:07:24;98994.72;;;23.53;76.83
43430;BME280;29028;43.234;27.896;2022-09-17T04:07:45;99000.31;;;23.48;76.47
43430;BME280;29028;43.234;27.896;2022-09-17T04:08:05;99000.31;;;23.48;76.73
43430;BME280;29028;43.234;27.896;2022-09-17T04:08:27;98995.22;;;23.41;76.35
43430;BME280;29028;43.234;27.896;2022-09-17T04:08:48;98985.63;;;23.39;76.43
43430;BME280;29028;43.234;27.896;2022-09-17T04:09:09;98982.69;;;23.35;76.36
43430;BME280;29028;43.234;27.896;2022-09-17T04:09:30;98984.94;;;23.47;76.59
43430;BME280;29028;43.234;27.896;2022-09-17T04:09:51;98992.38;;;23.46;76.22
43430;BME280;29028;43.234;27.896;2022-09-17T04:10:12;98989.63;;;23.46;76.29
43430;BME280;29028;43.234;27.896;2022-09-17T04:10:33;98985.75;;;23.47;76.22
43430;BME280;29028;43.234;27.896;2022-09-17T04:10:54;98983.84;;;23.48;76.13
43430;BME280;29028;43.234;27.896;2022-09-17T04:11:15;98990.97;;;23.49;76.12
43430;BME280;29028;43.234;27.896;2022-09-17T04:11:37;98997.47;;;23.53;76.04
43430;BME280;29028;43.234;27.896;2022-09-17T04:11:58;98983.31;;;23.46;75.83
43430;BME280;29028;43.234;27.896;2022-09-17T04:12:19;98989.84;;;23.50;75.89
43430;BME280;29028;43.234;27.896;2022-09-17T04:12:40;98985.88;;;23.56;75.80
43430;BME280;29028;43.234;27.896;2022-09-17T04:13:00;98994.31;;;23.59;75.65
43430;BME280;29028;43.234;27.896;2022-09-17T04:13:22;98989.44;;;23.56;75.20
43430;BME280;29028;43.234;27.896;2022-09-17T04:13:43;98984.03;;;23.51;74.97
43430;BME280;29028;43.234;27.896;2022-09-17T04:14:04;98986.59;;;23.48;75.34
43430;BME280;29028;43.234;27.896;2022-09-17T04:14:25;98989.00;;;23.49;75.09
43430;BME280;29028;43.234;27.896;2022-09-17T04:15:08;98985.97;;;23.64;74.95
43430;BME280;29028;43.234;27.896;2022-09-17T04:15:29;98994.53;;;23.63;74.65
43430;BME280;29028;43.234;27.896;2022-09-17T04:15:50;98987.50;;;23.70;74.64
43430;BME280;29028;43.234;27.896;2022-09-17T04:16:11;98993.75;;;23.76;74.38
43430;BME280;29028;43.234;27.896;2022-09-17T04:16:32;98983.16;;;23.83;73.99
43430;BME280;29028;43.234;27.896;2022-09-17T04:16:57;98984.72;;;23.89;73.59
43430;BME280;29028;43.234;27.896;2022-09-17T04:17:17;98991.59;;;23.86;73.54
43430;BME280;29028;43.234;27.896;2022-09-17T04:17:39;98991.59;;;23.86;73.50
43430;BME280;29028;43.234;27.896;2022-09-17T04:18:00;98993.78;;;23.89;73.21
43430;BME280;29028;43.234;27.896;2022-09-17T04:18:20;98985.72;;;23.93;73.15
43430;BME280;29028;43.234;27.896;2022-09-17T04:18:42;98994.78;;;23.93;73.00
43430;BME280;29028;43.234;27.896;2022-09-17T04:19:03;98988.19;;;23.94;72.71
43430;BME280;29028;43.234;27.896;2022-09-17T04:19:24;98987.16;;;23.90;72.63
43430;BME280;29028;43.234;27.896;2022-09-17T04:19:45;98993.97;;;23.93;72.83
43430;BME280;29028;43.234;27.896;2022-09-17T04:20:06;98990.09;;;23.94;72.63
43430;BME280;29028;43.234;27.896;2022-09-17T04:20:28;98985.72;;;23.93;72.57
43430;BME280;29028;43.234;27.896;2022-09-17T04:20:49;98985.44;;;23.94;72.43
43430;BME280;29028;43.234;27.896;2022-09-17T04:21:10;98985.63;;;23.98;72.34
43430;BME280;29028;43.234;27.896;2022-09-17T04:21:30;98975.53;;;23.93;72.10
43430;BME280;29028;43.234;27.896;2022-09-17T04:21:52;98988.38;;;23.98;72.10
43430;BME280;29028;43.234;27.896;2022-09-17T04:22:13;98989.72;;;24.00;71.98
43430;BME280;29028;43.234;27.896;2022-09-17T04:22:34;98980.63;;;24.00;71.55
43430;BME280;29028;43.234;27.896;2022-09-17T04:22:55;98975.13;;;24.00;71.82
43430;BME280;29028;43.234;27.896;2022-09-17T04:23:16;98973.72;;;24.02;71.68
43430;BME280;29028;43.234;27.896;2022-09-17T04:23:38;98975.13;;;24.00;71.45
43430;BME280;29028;43.234;27.896;2022-09-17T04:23:59;98971.16;;;24.06;71.17
43430;BME280;29028;43.234;27.896;2022-09-17T04:24:20;98974.94;;;24.10;71.16
43430;BME280;29028;43.234;27.896;2022-09-17T04:24:40;98964.41;;;24.12;70.86
43430;BME280;29028;43.234;27.896;2022-09-17T04:25:01;98960.34;;;24.09;70.62
43430;BME280;29028;43.234;27.896;2022-09-17T04:25:23;98964.31;;;24.17;70.50
43430;BME280;29028;43.234;27.896;2022-09-17T04:25:44;98962.19;;;24.14;70.33
43430;BME280;29028;43.234;27.896;2022-09-17T04:26:05;98959.44;;;24.14;70.27
43430;BME280;29028;43.234;27.896;2022-09-17T04:26:26;98965.44;;;24.16;70.18
43430;BME280;29028;43.234;27.896;2022-09-17T04:26:46;98960.13;;;24.19;70.13
43430;BME280;29028;43.234;27.896;2022-09-17T04:27:08;98961.16;;;24.23;69.89
43430;BME280;29028;43.234;27.896;2022-09-17T04:27:29;98967.97;;;24.26;69.79
43430;BME280;29028;43.234;27.896;2022-09-17T04:27:50;98962.59;;;24.21;69.76
43430;BME280;29028;43.234;27.896;2022-09-17T04:28:11;98962.78;;;24.24;69.75
43430;BME280;29028;43.234;27.896;2022-09-17T04:28:33;98967.25;;;24.20;69.44
43430;BME280;29028;43.234;27.896;2022-09-17T04:28:54;98967.59;;;24.19;69.71
43430;BME280;29028;43.234;27.896;2022-09-17T04:29:15;98970.53;;;24.22;69.72
43430;BME280;29028;43.234;27.896;2022-09-17T04:29:36;98968.78;;;24.26;69.74
43430;BME280;29028;43.234;27.896;2022-09-17T04:29:56;98971.53;;;24.26;69.25
43430;BME280;29028;43.234;27.896;2022-09-17T04:30:18;98978.25;;;24.20;69.22
43430;BME280;29028;43.234;27.896;2022-09-17T04:30:39;98970.25;;;24.24;69.29
43430;BME280;29028;43.234;27.896;2022-09-17T04:31:02;98974.50;;;24.30;69.36
43430;BME280;29028;43.234;27.896;2022-09-17T04:31:23;98969.50;;;24.18;69.01
43430;BME280;29028;43.234;27.896;2022-09-17T04:31:46;98979.78;;;24.26;69.41
43430;BME280;29028;43.234;27.896;2022-09-17T04:32:08;98981.34;;;24.32;69.06
43430;BME280;29028;43.234;27.896;2022-09-17T04:32:29;98979.38;;;24.33;69.07
43430;BME280;29028;43.234;27.896;2022-09-17T04:32:50;98974.41;;;24.35;68.89
43430;BME280;29028;43.234;27.896;2022-09-17T04:33:11;98985.25;;;24.40;69.06
43430;BME280;29028;43.234;27.896;2022-09-17T04:33:33;98985.97;;;24.45;68.71
43430;BME280;29028;43.234;27.896;2022-09-17T04:33:54;98982.63;;;24.48;68.76
43430;BME280;29028;43.234;27.896;2022-09-17T04:34:15;98984.44;;;24.53;68.54
43430;BME280;29028;43.234;27.896;2022-09-17T04:34:36;98985.03;;;24.50;68.38
43430;BME280;29028;43.234;27.896;2022-09-17T04:34:57;98981.16;;;24.51;68.62
43430;BME280;29028;43.234;27.896;2022-09-17T04:35:18;98980.25;;;24.55;68.13
43430;BME280;29028;43.234;27.896;2022-09-17T04:35:39;98978.84;;;24.58;67.90
43430;BME280;29028;43.234;27.896;2022-09-17T04:36:00;98991.50;;;24.59;67.74
43430;BME280;29028;43.234;27.896;2022-09-17T04:36:21;98978.84;;;24.58;67.76
43430;BME280;29028;43.234;27.896;2022-09-17T04:36:43;98989.56;;;24.59;67.80
43430;BME280;29028;43.234;27.896;2022-09-17T04:37:04;98980.75;;;24.57;67.72
43430;BME280;29028;43.234;27.896;2022-09-17T04:37:25;98981.81;;;24.61;67.78
43430;BME280;29028;43.234;27.896;2022-09-17T04:37:51;98983.31;;;24.54;67.55
43430;BME280;29028;43.234;27.896;2022-09-17T04:38:12;98979.25;;;24.51;67.74
43430;BME280;29028;43.234;27.896;2022-09-17T04:38:37;98987.38;;;24.56;67.55
43430;BME280;29028;43.234;27.896;2022-09-17T04:38:58;98977.19;;;24.57;67.30
43430;BME280;29028;43.234;27.896;2022-09-17T04:39:19;98982.09;;;24.60;67.38
43430;BME280;29028;43.234;27.896;2022-09-17T04:39:40;98985.56;;;24.65;67.06
43430;BME280;29028;43.234;27.896;2022-09-17T04:40:03;98991.56;;;24.67;67.15
43430;BME280;29028;43.234;27.896;2022-09-17T04:40:25;98982.28;;;24.63;66.81
43430;BME280;29028;43.234;27.896;2022-09-17T04:40:47;98975.47;;;24.61;66.84
43430;BME280;29028;43.234;27.896;2022-09-17T04:41:08;98974.22;;;24.67;66.94
43430;BME280;29028;43.234;27.896;2022-09-17T04:41:28;98982.56;;;24.75;66.74
43430;BME280;29028;43.234;27.896;2022-09-17T04:41:50;98975.63;;;24.78;66.52
43430;BME280;29028;43.234;27.896;2022-09-17T04:42:11;98985.19;;;24.80;66.54
43430;BME280;29028;43.234;27.896;2022-09-17T04:42:32;98983.75;;;24.83;66.44
43430;BME280;29028;43.234;27.896;2022-09-17T04:42:53;98976.63;;;24.82;66.39
43430;BME280;29028;43.234;27.896;2022-09-17T04:43:15;98982.66;;;24.84;66.02
43430;BME280;29028;43.234;27.896;2022-09-17T04:43:36;98979.06;;;24.83;66.18
43430;BME280;29028;43.234;27.896;2022-09-17T04:43:57;98984.16;;;24.90;66.22
43430;BME280;29028;43.234;27.896;2022-09-17T04:44:18;98980.88;;;24.88;66.31
43430;BME280;29028;43.234;27.896;2022-09-17T04:44:40;98961.25;;;24.81;65.67
43430;BME280;29028;43.234;27.896;2022-09-17T04:45:01;98981.81;;;24.83;66.20
43430;BME280;29028;43.234;27.896;2022-09-17T04:45:22;98975.25;;;24.71;66.44
43430;BME280;29028;43.234;27.896;2022-09-17T04:45:44;98978.56;;;24.59;66.81
43430;BME280;29028;43.234;27.896;2022-09-17T04:46:05;98981.31;;;24.59;66.90
43430;BME280;29028;43.234;27.896;2022-09-17T04:46:27;98979.66;;;24.58;67.16
43430;BME280;29028;43.234;27.896;2022-09-17T04:46:48;98980.75;;;24.57;67.16
43430;BME280;29028;43.234;27.896;2022-09-17T04:47:10;98986.25;;;24.57;67.17
43430;BME280;29028;43.234;27.896;2022-09-17T04:47:31;98987.59;;;24.60;67.17
43430;BME280;29028;43.234;27.896;2022-09-17T04:47:52;98978.00;;;24.57;66.90
43430;BME280;29028;43.234;27.896;2022-09-17T04:48:14;98985.16;;;24.45;67.50
43430;BME280;29028;43.234;27.896;2022-09-17T04:48:35;98986.19;;;24.35;67.78
43430;BME280;29028;43.234;27.896;2022-09-17T04:48:55;98984.78;;;24.38;68.15
43430;BME280;29028;43.234;27.896;2022-09-17T04:49:16;98985.06;;;24.36;68.31
43430;BME280;29028;43.234;27.896;2022-09-17T04:49:38;98980.28;;;24.42;68.43
43430;BME280;29028;43.234;27.896;2022-09-17T04:49:59;98984.16;;;24.41;68.19
43430;BME280;29028;43.234;27.896;2022-09-17T04:50:20;98974.59;;;24.38;68.51
43430;BME280;29028;43.234;27.896;2022-09-17T04:50:41;98983.44;;;24.35;68.59
43430;BME280;29028;43.234;27.896;2022-09-17T04:51:02;98985.72;;;24.33;68.91
43430;BME280;29028;43.234;27.896;2022-09-17T04:51:24;98976.13;;;24.31;69.15
43430;BME280;29028;43.234;27.896;2022-09-17T04:51:45;98981.53;;;24.36;68.90
43430;BME280;29028;43.234;27.896;2022-09-17T04:52:06;98981.53;;;24.36;69.02
43430;BME280;29028;43.234;27.896;2022-09-17T04:52:27;98972.34;;;24.27;69.31
43430;BME280;29028;43.234;27.896;2022-09-17T04:52:48;98978.91;;;24.17;69.67
43430;BME280;29028;43.234;27.896;2022-09-17T04:53:10;98976.25;;;24.12;70.05
43430;BME280;29028;43.234;27.896;2022-09-17T04:53:31;98974.19;;;24.18;70.07
43430;BME280;29028;43.234;27.896;2022-09-17T04:53:52;98967.25;;;24.20;70.04
43430;BME280;29028;43.234;27.896;2022-09-17T04:54:13;98975.31;;;24.30;69.42
43430;BME280;29028;43.234;27.896;2022-09-17T04:54:34;98980.88;;;24.39;69.34
43430;BME280;29028;43.234;27.896;2022-09-17T04:54:56;98978.13;;;24.39;69.48
43430;BME280;29028;43.234;27.896;2022-09-17T04:55:17;98968.91;;;24.35;69.63
43430;BME280;29028;43.234;27.896;2022-09-17T04:55:38;98972.53;;;24.44;69.40
43430;BME280;29028;43.234;27.896;2022-09-17T04:55:59;98974.25;;;24.40;69.68
43430;BME280;29028;43.234;27.896;2022-09-17T04:56:20;98977.25;;;24.30;70.18
43430;BME280;29028;43.234;27.896;2022-09-17T04:56:42;98966.63;;;24.37;70.11
43430;BME280;29028;43.234;27.896;2022-09-17T04:57:03;98967.97;;;24.39;69.99
43430;BME280;29028;43.234;27.896;2022-09-17T04:57:24;98972.75;;;24.34;70.51
43430;BME280;29028;43.234;27.896;2022-09-17T04:57:46;98972.81;;;24.42;70.13
43430;BME280;29028;43.234;27.896;2022-09-17T04:58:09;98972.41;;;24.49;69.71
43430;BME280;29028;43.234;27.896;2022-09-17T04:58:30;98972.31;;;24.54;69.55
43430;BME280;29028;43.234;27.896;2022-09-17T04:58:52;98965.09;;;24.58;69.42
43430;BME280;29028;43.234;27.896;2022-09-17T04:59:13;98973.06;;;24.59;69.04
43430;BME280;29028;43.234;27.896;2022-09-17T04:59:35;98970.38;;;24.68;68.98
43430;BME280;29028;43.234;27.896;2022-09-17T04:59:56;98962.41;;;24.66;68.77
43430;BME280;29028;43.234;27.896;2022-09-17T05:00:18;98950.09;;;24.64;68.92
43430;BME280;29028;43.234;27.896;2022-09-17T05:00:39;98960.16;;;24.68;68.77
43430;BME280;29028;43.234;27.896;2022-09-17T05:01:02;98965.06;;;24.71;68.75
43430;BME280;29028;43.234;27.896;2022-09-17T05:01:23;98956.16;;;24.74;68.65
43430;BME280;29028;43.234;27.896;2022-09-17T05:01:43;98962.06;;;24.81;68.14
43430;BME280;29028;43.234;27.896;2022-09-17T05:02:04;98949.59;;;24.84;68.13
43430;BME280;29028;43.234;27.896;2022-09-17T05:02:27;98948.47;;;24.85;67.99
43430;BME280;29028;43.234;27.896;2022-09-17T05:02:49;98948.19;;;24.86;67.89
43430;BME280;29028;43.234;27.896;2022-09-17T05:03:10;98955.03;;;24.75;68.17
43430;BME280;29028;43.234;27.896;2022-09-17T05:03:31;98950.34;;;24.76;68.47
43430;BME280;29028;43.234;27.896;2022-09-17T05:03:53;98951.47;;;24.75;68.29
43430;BME280;29028;43.234;27.896;2022-09-17T05:04:14;98946.34;;;24.82;68.02
43430;BME280;29028;43.234;27.896;2022-09-17T05:04:35;98949.28;;;24.85;68.02
43430;BME280;29028;43.234;27.896;2022-09-17T05:04:56;98953.16;;;24.84;68.04
43430;BME280;29028;43.234;27.896;2022-09-17T05:05:18;98947.97;;;24.83;68.12
43430;BME280;29028;43.234;27.896;2022-09-17T05:05:40;98951.91;;;24.90;68.06
43430;BME280;29028;43.234;27.896;2022-09-17T05:06:01;98949.16;;;24.90;67.75
43430;BME280;29028;43.234;27.896;2022-09-17T05:06:22;98948.53;;;24.93;67.76
43430;BME280;29028;43.234;27.896;2022-09-17T05:06:42;98943.81;;;24.94;67.85
43430;BME280;29028;43.234;27.896;2022-09-17T05:07:03;98944.84;;;24.98;67.59
43430;BME280;29028;43.234;27.896;2022-09-17T05:07:25;98941.28;;;24.97;67.04
43430;BME280;29028;43.234;27.896;2022-09-17T05:07:46;98942.91;;;24.98;67.15
43430;BME280;29028;43.234;27.896;2022-09-17T05:08:07;98947.78;;;25.01;67.02
43430;BME280;29028;43.234;27.896;2022-09-17T05:08:29;98937.06;;;25.00;66.65
43430;BME280;29028;43.234;27.896;2022-09-17T05:08:50;98940.81;;;25.04;66.46
43430;BME280;29028;43.234;27.896;2022-09-17T05:09:11;98939.69;;;25.05;66.32
43430;BME280;29028;43.234;27.896;2022-09-17T05:09:31;98943.44;;;25.09;66.10
43430;BME280;29028;43.234;27.896;2022-09-17T05:09:52;98928.72;;;25.13;66.00
43430;BME280;29028;43.234;27.896;2022-09-17T05:10:15;98932.00;;;25.15;65.59
43430;BME280;29028;43.234;27.896;2022-09-17T05:10:37;98929.13;;;25.20;65.69
43430;BME280;29028;43.234;27.896;2022-09-17T05:10:59;98928.69;;;25.27;65.50
43430;BME280;29028;43.234;27.896;2022-09-17T05:11:19;98927.34;;;25.24;65.10
43430;BME280;29028;43.234;27.896;2022-09-17T05:11:41;98931.13;;;25.28;64.93
43430;BME280;29028;43.234;27.896;2022-09-17T05:12:03;98923.38;;;25.30;64.98
43430;BME280;29028;43.234;27.896;2022-09-17T05:12:23;98926.94;;;25.31;64.89
43430;BME280;29028;43.234;27.896;2022-09-17T05:12:47;98928.75;;;25.35;64.82
43430;BME280;29028;43.234;27.896;2022-09-17T05:13:08;98933.78;;;25.42;64.51
43430;BME280;29028;43.234;27.896;2022-09-17T05:13:30;98925.69;;;25.45;64.07
43430;BME280;29028;43.234;27.896;2022-09-17T05:13:51;98930.59;;;25.48;64.00
43430;BME280;29028;43.234;27.896;2022-09-17T05:14:12;98927.84;;;25.48;63.96
43430;BME280;29028;43.234;27.896;2022-09-17T05:14:33;98930.28;;;25.50;63.67
43430;BME280;29028;43.234;27.896;2022-09-17T05:14:55;98927.88;;;25.57;63.79
43430;BME280;29028;43.234;27.896;2022-09-17T05:15:16;98932.94;;;25.63;63.16
43430;BME280;29028;43.234;27.896;2022-09-17T05:15:37;98925.63;;;25.67;63.15
43430;BME280;29028;43.234;27.896;2022-09-17T05:15:58;98929.53;;;25.66;62.01
43430;BME280;29028;43.234;27.896;2022-09-17T05:16:20;98926.59;;;25.63;62.25
43430;BME280;29028;43.234;27.896;2022-09-17T05:16:41;98930.69;;;25.74;62.56
43430;BME280;29028;43.234;27.896;2022-09-17T05:17:02;98923.25;;;25.74;62.48
43430;BME280;29028;43.234;27.896;2022-09-17T05:17:23;98930.88;;;25.77;62.34
43430;BME280;29028;43.234;27.896;2022-09-17T05:17:45;98918.38;;;25.80;62.56
43430;BME280;29028;43.234;27.896;2022-09-17T05:18:07;98931.53;;;25.83;61.14
43430;BME280;29028;43.234;27.896;2022-09-17T05:18:28;98923.28;;;25.83;62.00
43430;BME280;29028;43.234;27.896;2022-09-17T05:18:49;98927.81;;;25.87;62.19
43430;BME280;29028;43.234;27.896;2022-09-17T05:19:11;98932.50;;;25.87;62.09
43430;BME280;29028;43.234;27.896;2022-09-17T05:19:32;98928.13;;;25.86;62.52
43430;BME280;29028;43.234;27.896;2022-09-17T05:19:53;98936.25;;;25.82;62.90
43430;BME280;29028;43.234;27.896;2022-09-17T05:20:15;98923.72;;;25.76;63.37
43430;BME280;29028;43.234;27.896;2022-09-17T05:20:37;98933.75;;;25.72;63.08
43430;BME280;29028;43.234;27.896;2022-09-17T05:20:58;98939.38;;;25.59;63.63
43430;BME280;29028;43.234;27.896;2022-09-17T05:21:19;98923.63;;;25.51;64.08
43430;BME280;29028;43.234;27.896;2022-09-17T05:21:40;98936.59;;;25.50;64.36
43430;BME280;29028;43.234;27.896;2022-09-17T05:22:01;98924.72;;;25.41;64.38
43430;BME280;29028;43.234;27.896;2022-09-17T05:22:22;98934.53;;;25.56;64.35
43430;BME280;29028;43.234;27.896;2022-09-17T05:22:45;98933.72;;;25.64;64.16
43430;BME280;29028;43.234;27.896;2022-09-17T05:23:06;98932.94;;;25.63;64.44
43430;BME280;29028;43.234;27.896;2022-09-17T05:23:27;98936.31;;;25.60;64.67
43430;BME280;29028;43.234;27.896;2022-09-17T05:23:48;98935.03;;;25.66;64.57
43430;BME280;29028;43.234;27.896;2022-09-17T05:24:09;98929.53;;;25.66;64.27
43430;BME280;29028;43.234;27.896;2022-09-17T05:24:31;98933.56;;;25.60;64.07
43430;BME280;29028;43.234;27.896;2022-09-17T05:24:53;98938.75;;;25.62;64.36
43430;BME280;29028;43.234;27.896;2022-09-17T05:25:15;98938.63;;;25.67;65.15
43430;BME280;29028;43.234;27.896;2022-09-17T05:25:36;98936.66;;;25.67;64.99
43430;BME280;29028;43.234;27.896;2022-09-17T05:25:58;98938.09;;;25.65;65.66
43430;BME280;29028;43.234;27.896;2022-09-17T05:26:19;98937.63;;;25.63;66.07
43430;BME280;29028;43.234;27.896;2022-09-17T05:26:40;98934.53;;;25.56;65.98
43430;BME280;29028;43.234;27.896;2022-09-17T05:27:01;98935.66;;;25.55;65.75
43430;BME280;29028;43.234;27.896;2022-09-17T05:27:23;98930.13;;;25.55;65.52
43430;BME280;29028;43.234;27.896;2022-09-17T05:27:44;98931.44;;;25.57;65.67
43430;BME280;29028;43.234;27.896;2022-09-17T05:28:05;98939.72;;;25.57;66.91
43430;BME280;29028;43.234;27.896;2022-09-17T05:28:26;98930.59;;;25.48;66.75
43430;BME280;29028;43.234;27.896;2022-09-17T05:28:48;98938.84;;;25.48;67.73
43430;BME280;29028;43.234;27.896;2022-09-17T05:29:09;98939.34;;;25.50;67.17
43430;BME280;29028;43.234;27.896;2022-09-17T05:29:30;98935.09;;;25.44;66.54
43430;BME280;29028;43.234;27.896;2022-09-17T05:29:50;98931.69;;;25.39;67.33
43430;BME280;29028;43.234;27.896;2022-09-17T05:30:12;98933.16;;;25.45;67.18
43430;BME280;29028;43.234;27.896;2022-09-17T05:30:34;98932.03;;;25.46;66.28
43430;BME280;29028;43.234;27.896;2022-09-17T05:30:57;98943.06;;;25.46;67.77
43430;BME280;29028;43.234;27.896;2022-09-17T05:31:18;98939.47;;;25.45;68.62
43430;BME280;29028;43.234;27.896;2022-09-17T05:31:39;98945.38;;;25.52;67.96
43430;BME280;29028;43.234;27.896;2022-09-17T05:32:01;98944.53;;;25.52;66.66
43430;BME280;29028;43.234;27.896;2022-09-17T05:32:22;98943.88;;;25.46;67.23
43430;BME280;29028;43.234;27.896;2022-09-17T05:32:45;98942.84;;;25.34;67.75
43430;BME280;29028;43.234;27.896;2022-09-17T05:33:06;98944.78;;;25.33;68.70
43430;BME280;29028;43.234;27.896;2022-09-17T05:33:28;98947.88;;;25.40;68.35
43430;BME280;29028;43.234;27.896;2022-09-17T05:33:49;98939.78;;;25.35;68.77
43430;BME280;29028;43.234;27.896;2022-09-17T05:34:10;98940.88;;;25.34;68.07
43430;BME280;29028;43.234;27.896;2022-09-17T05:34:31;98949.53;;;25.41;67.59
43430;BME280;29028;43.234;27.896;2022-09-17T05:34:53;98939.44;;;25.37;67.97
43430;BME280;29028;43.234;27.896;2022-09-17T05:35:14;98946.88;;;25.28;69.00
43430;BME280;29028;43.234;27.896;2022-09-17T05:35:35;98933.63;;;25.16;69.22
43430;BME280;29028;43.234;27.896;2022-09-17T05:35:57;98940.56;;;25.14;69.79
43430;BME280;29028;43.234;27.896;2022-09-17T05:36:19;98942.06;;;25.20;69.69
43430;BME280;29028;43.234;27.896;2022-09-17T05:36:40;98931.44;;;25.27;69.02
43430;BME280;29028;43.234;27.896;2022-09-17T05:37:01;98938.81;;;25.40;67.94
43430;BME280;29028;43.234;27.896;2022-09-17T05:37:23;98939.88;;;25.52;67.37
43430;BME280;29028;43.234;27.896;2022-09-17T05:37:44;98933.53;;;25.52;67.66
43430;BME280;29028;43.234;27.896;2022-09-17T05:38:05;98938.94;;;25.65;67.55
43430;BME280;29028;43.234;27.896;2022-09-17T05:38:27;98939.94;;;25.69;67.02
43430;BME280;29028;43.234;27.896;2022-09-17T05:38:48;98938.78;;;25.70;66.85
43430;BME280;29028;43.234;27.896;2022-09-17T05:39:10;98942.72;;;25.78;66.91
43430;BME280;29028;43.234;27.896;2022-09-17T05:39:30;98937.72;;;25.88;66.41
43430;BME280;29028;43.234;27.896;2022-09-17T05:39:52;98941.03;;;25.99;65.46
43430;BME280;29028;43.234;27.896;2022-09-17T05:40:13;98950.47;;;26.06;65.41
43430;BME280;29028;43.234;27.896;2022-09-17T05:40:36;98946.44;;;26.12;65.16
43430;BME280;29028;43.234;27.896;2022-09-17T05:40:57;98945.44;;;26.08;66.38
43430;BME280;29028;43.234;27.896;2022-09-17T05:41:18;98941.69;;;26.04;66.99
43430;BME280;29028;43.234;27.896;2022-09-17T05:41:39;98935.53;;;25.99;67.31
43430;BME280;29028;43.234;27.896;2022-09-17T05:42:01;98930.50;;;26.01;66.80
43430;BME280;29028;43.234;27.896;2022-09-17T05:42:22;98945.44;;;26.00;67.29
43430;BME280;29028;43.234;27.896;2022-09-17T05:42:43;98937.31;;;26.03;67.83
43430;BME280;29028;43.234;27.896;2022-09-17T05:43:05;98936.19;;;26.04;68.04
43430;BME280;29028;43.234;27.896;2022-09-17T05:43:27;98931.31;;;26.01;67.74
43430;BME280;29028;43.234;27.896;2022-09-17T05:43:48;98930.00;;;25.99;67.36
43430;BME280;29028;43.234;27.896;2022-09-17T05:44:09;98934.69;;;25.98;67.39
43430;BME280;29028;43.234;27.896;2022-09-17T05:44:29;98930.63;;;25.96;67.41
43430;BME280;29028;43.234;27.896;2022-09-17T05:44:51;98933.41;;;25.96;67.07
43430;BME280;29028;43.234;27.896;2022-09-17T05:45:12;98933.72;;;25.94;67.45
43430;BME280;29028;43.234;27.896;2022-09-17T05:45:34;98935.66;;;25.94;68.08
43430;BME280;29028;43.234;27.896;2022-09-17T05:45:55;98929.63;;;25.92;68.64
43430;BME280;29028;43.234;27.896;2022-09-17T05:46:21;98931.31;;;26.01;66.82
43430;BME280;29028;43.234;27.896;2022-09-17T05:46:41;98934.09;;;26.10;66.18
43430;BME280;29028;43.234;27.896;2022-09-17T05:47:03;98922.41;;;26.13;66.13
43430;BME280;29028;43.234;27.896;2022-09-17T05:47:24;98930.69;;;26.21;65.81
43430;BME280;29028;43.234;27.896;2022-09-17T05:47:46;98931.06;;;26.28;65.47
43430;BME280;29028;43.234;27.896;2022-09-17T05:48:11;98927.31;;;26.33;65.33
43430;BME280;29028;43.234;27.896;2022-09-17T05:48:33;98937.50;;;26.24;65.96
43430;BME280;29028;43.234;27.896;2022-09-17T05:48:54;98931.38;;;26.27;65.86
43430;BME280;29028;43.234;27.896;2022-09-17T05:49:15;98934.44;;;26.34;65.54
43430;BME280;29028;43.234;27.896;2022-09-17T05:49:36;98932.69;;;26.38;65.10
43430;BME280;29028;43.234;27.896;2022-09-17T05:49:58;98938.38;;;26.41;64.40
43430;BME280;29028;43.234;27.896;2022-09-17T05:50:20;98936.09;;;26.43;64.99
43430;BME280;29028;43.234;27.896;2022-09-17T05:50:41;98935.13;;;26.48;64.68
43430;BME280;29028;43.234;27.896;2022-09-17T05:51:02;98926.69;;;26.44;65.04
43430;BME280;29028;43.234;27.896;2022-09-17T05:51:24;98928.94;;;26.34;65.65
43430;BME280;29028;43.234;27.896;2022-09-17T05:51:44;98934.75;;;26.24;65.76
43430;BME280;29028;43.234;27.896;2022-09-17T05:52:05;98935.25;;;26.17;65.95
43430;BME280;29028;43.234;27.896;2022-09-17T05:52:26;98936.69;;;26.15;67.00
43430;BME280;29028;43.234;27.896;2022-09-17T05:52:49;98935.72;;;26.19;67.35
43430;BME280;29028;43.234;27.896;2022-09-17T05:53:11;98932.16;;;26.19;67.27
43430;BME280;29028;43.234;27.896;2022-09-17T05:53:32;98938.81;;;26.26;67.26